createdAt,value
2023-02-16T00:02:09.118Z,14.6
2023-02-16T00:12:09.008Z,14.6
2023-02-16T00:22:08.646Z,14.5
2023-02-16T00:32:08.470Z,14.1
2023-02-16T00:42:08.004Z,14.4
2023-02-16T00:52:07.612Z,14.7
2023-02-16T01:02:06.848Z,14.4
2023-02-16T01:12:06.812Z,14.3
2023-02-16T01:22:06.993Z,14.3
2023-02-16T01:32:07.030Z,14.4
2023-02-16T01:42:06.588Z,14.1
2023-02-16T01:52:06.477Z,14
2023-02-16T02:02:05.927Z,14.4
2023-02-16T02:12:05.817Z,13.9
2023-02-16T02:22:05.675Z,14.2
2023-02-16T02:32:05.453Z,13.9
2023-02-16T02:42:05.396Z,15.9
2023-02-16T02:52:04.605Z,14
2023-02-16T03:03:08.303Z,14.1
2023-02-16T03:13:07.600Z,14
2023-02-16T03:23:07.432Z,14
2023-02-16T03:33:06.664Z,14.1
2023-02-16T03:43:05.905Z,14.1
2023-02-16T03:53:06.135Z,13.8
2023-02-16T04:03:06.168Z,13.9
2023-02-16T04:13:06.546Z,14.1
2023-02-16T04:23:07.286Z,13.9
2023-02-16T04:33:07.578Z,14
2023-02-16T04:43:08.476Z,13.7
2023-02-16T04:53:09.490Z,15.9
2023-02-16T05:03:10.010Z,13.6
2023-02-16T05:13:09.739Z,15.9
2023-02-16T05:23:09.482Z,13.6
2023-02-16T05:33:09.038Z,13.7
2023-02-16T05:43:08.703Z,13.8
2023-02-16T05:53:08.497Z,13.6
2023-02-16T06:03:09.352Z,18.9
2023-02-16T06:13:16.624Z,18.8
2023-02-16T06:23:24.906Z,18.8
2023-02-16T06:33:32.825Z,19.8
2023-02-16T06:43:42.230Z,20.4
2023-02-16T06:53:52.592Z,20.6
2023-02-16T07:04:02.084Z,21.2
2023-02-16T07:14:11.205Z,21.8
2023-02-16T07:24:21.418Z,22
2023-02-16T07:34:30.792Z,22.2
2023-02-16T07:44:40.721Z,22.8
2023-02-16T07:54:52.049Z,23.4
2023-02-16T08:05:03.571Z,24
2023-02-16T08:15:16.604Z,24.6
2023-02-16T08:25:25.318Z,24
2023-02-16T08:35:37.423Z,24.3
2023-02-16T08:45:44.910Z,24.5
2023-02-16T08:54:11.733Z,25.6
2023-02-16T09:03:10.988Z,25.3
2023-02-16T09:08:54.414Z,25.1
2023-02-16T09:12:39.720Z,25.7
2023-02-16T09:24:37.855Z,26.1
2023-02-16T09:34:52.379Z,26.4
2023-02-16T09:45:05.886Z,25.9
2023-02-16T09:55:17.400Z,25.1
2023-02-16T10:05:27.024Z,24.4
2023-02-16T10:15:35.393Z,26.3
2023-02-16T10:25:47.474Z,25.2
2023-02-16T10:36:00.564Z,26.2
2023-02-16T10:46:14.592Z,26.1
2023-02-16T10:56:27.952Z,25.8
2023-02-16T11:06:40.613Z,25.3
2023-02-16T11:16:53.839Z,25.6
2023-02-16T11:27:06.383Z,24.8
2023-02-16T11:37:18.268Z,24.6
2023-02-16T11:47:29.614Z,24.6
2023-02-16T11:57:41.637Z,24.8
2023-02-16T12:07:53.031Z,24.3
2023-02-16T12:18:00.655Z,24.3
2023-02-16T12:28:06.415Z,22.8
2023-02-16T12:38:11.515Z,22.3
2023-02-16T12:48:15.524Z,22.1
2023-02-16T12:58:19.452Z,21.5
2023-02-16T13:08:23.226Z,21.6
2023-02-16T13:18:27.029Z,21.6
2023-02-16T13:28:30.700Z,21.3
2023-02-16T13:38:34.465Z,21.3
2023-02-16T13:48:38.077Z,21.4
2023-02-16T13:58:42.377Z,21.2
2023-02-16T14:08:45.354Z,21.1
2023-02-16T14:18:49.041Z,20.7
2023-02-16T14:28:51.833Z,20.9
2023-02-16T14:38:56.300Z,20.8
2023-02-16T14:48:58.497Z,17.6
2023-02-16T14:59:01.147Z,20.5
2023-02-16T15:03:06.113Z,17.8
2023-02-16T15:13:09.898Z,20.6
2023-02-16T15:23:13.418Z,20.5
2023-02-16T15:33:16.329Z,20.1
2023-02-16T15:43:18.464Z,20.4
2023-02-16T15:53:21.392Z,20.3
2023-02-16T16:03:24.108Z,20.4
2023-02-16T16:13:27.371Z,17.4
2023-02-16T16:23:29.339Z,17.5
2023-02-16T16:33:31.895Z,19.9
2023-02-16T16:43:35.126Z,19.9
2023-02-16T16:53:36.689Z,17.2
2023-02-16T17:03:38.617Z,19.9
2023-02-16T17:13:39.311Z,17.4
2023-02-16T17:23:47.675Z,19.8
2023-02-16T17:33:40.917Z,17.1
2023-02-16T17:43:40.776Z,19.4
2023-02-16T17:53:42.466Z,19.3
2023-02-16T18:03:43.476Z,16.6
2023-02-16T18:13:44.723Z,16.4
2023-02-16T18:23:45.873Z,16.6
2023-02-16T18:33:46.591Z,16.6
2023-02-16T18:43:46.280Z,16.4
2023-02-16T18:53:46.339Z,16.6
2023-02-16T19:03:46.202Z,16.3
2023-02-16T19:13:45.428Z,16.4
2023-02-16T19:23:44.598Z,16.6
2023-02-16T19:33:44.495Z,16.1
2023-02-16T19:43:44.542Z,18.5
2023-02-16T19:53:45.159Z,16.3
2023-02-16T20:03:45.486Z,16.3
2023-02-16T20:13:45.626Z,16.4
2023-02-16T20:23:46.697Z,16.2
2023-02-16T20:33:46.526Z,16.3
2023-02-16T20:43:47.662Z,16.1
2023-02-16T20:53:47.882Z,18.4
2023-02-16T21:03:08.657Z,16.3
2023-02-16T21:13:09.368Z,18.5
2023-02-16T21:23:09.760Z,16
2023-02-16T21:33:10.071Z,16.1
2023-02-16T21:43:10.918Z,16.2
2023-02-16T21:53:12.113Z,16.1
2023-02-16T22:03:12.732Z,16
2023-02-16T22:13:14.076Z,15.9
2023-02-16T22:23:16.188Z,18.4
2023-02-16T22:33:19.241Z,18.3
2023-02-16T22:43:20.671Z,15.9
2023-02-16T22:53:21.045Z,15.8
2023-02-16T23:03:23.169Z,18.3
2023-02-16T23:13:22.222Z,15.9
2023-02-16T23:23:22.896Z,15.7
2023-02-16T23:33:23.683Z,15.7
2023-02-16T23:43:23.028Z,15.6
2023-02-16T23:53:23.266Z,15.9
